createdAt,value
2018-04-16T00:00:32.598Z,13.30
2018-04-16T00:03:02.713Z,13.20
2018-04-16T00:05:32.916Z,13.20
2018-04-16T00:08:03.156Z,13.20
2018-04-16T00:10:33.322Z,13.10
2018-04-16T00:13:03.486Z,13.00
2018-04-16T00:15:34.060Z,12.90
2018-04-16T00:18:05.718Z,12.80
2018-04-16T00:20:35.953Z,12.80
2018-04-16T00:23:06.070Z,12.80
2018-04-16T00:25:36.898Z,12.70
2018-04-16T00:28:08.446Z,12.70
2018-04-16T00:30:40.481Z,12.70
2018-04-16T00:35:21.669Z,14.70
2018-04-16T00:39:57.537Z,12.60
2018-04-16T00:43:36.469Z,12.50
2018-04-16T00:48:13.913Z,12.50
2018-04-16T00:51:50.059Z,12.40
2018-04-16T00:56:27.963Z,12.40
2018-04-16T01:00:02.645Z,12.30
2018-04-16T01:03:38.337Z,12.20
2018-04-16T01:07:16.212Z,12.20
2018-04-16T01:11:59.602Z,12.10
2018-04-16T01:15:33.618Z,12.10
2018-04-16T01:19:07.281Z,12.00
2018-04-16T01:22:42.734Z,12.00
2018-04-16T01:27:21.511Z,12.00
2018-04-16T01:29:57.289Z,11.90
2018-04-16T01:32:32.565Z,11.90
2018-04-16T01:37:10.521Z,11.90
2018-04-16T01:41:48.352Z,11.80
2018-04-16T01:45:21.141Z,11.80
2018-04-16T01:47:57.605Z,11.90
2018-04-16T01:51:32.849Z,11.90
2018-04-16T01:56:13.153Z,11.80
2018-04-16T01:59:46.424Z,13.80
2018-04-16T02:03:24.951Z,11.70
2018-04-16T02:08:03.484Z,11.70
2018-04-16T02:12:46.083Z,11.70
2018-04-16T02:17:24.842Z,11.50
2018-04-16T02:22:05.013Z,11.60
2018-04-16T02:25:40.664Z,11.60
2018-04-16T02:29:19.943Z,11.50
2018-04-16T02:34:00.077Z,11.50
2018-04-16T02:38:38.766Z,11.50
2018-04-16T02:42:12.324Z,11.50
2018-04-16T02:44:48.288Z,11.50
2018-04-16T02:49:25.904Z,11.40
2018-04-16T02:52:59.703Z,11.40
2018-04-16T02:55:34.860Z,11.20
2018-04-16T02:59:08.663Z,11.20
2018-04-16T03:01:44.462Z,11.00
2018-04-16T03:05:20.480Z,11.00
2018-04-16T03:10:00.530Z,11.00
2018-04-16T03:12:36.089Z,10.90
2018-04-16T03:15:12.074Z,10.80
2018-04-16T03:17:47.500Z,10.80
2018-04-16T03:21:20.278Z,10.80
2018-04-16T03:24:56.385Z,10.70
2018-04-16T03:28:32.375Z,10.60
2018-04-16T03:33:09.425Z,10.60
2018-04-16T03:37:46.115Z,10.60
2018-04-16T03:42:29.333Z,10.50
2018-04-16T03:47:06.154Z,10.40
2018-04-16T03:50:43.228Z,10.30
2018-04-16T03:53:18.205Z,10.30
2018-04-16T03:55:48.978Z,10.30
2018-04-16T03:58:20.866Z,10.30
2018-04-16T04:00:50.987Z,10.30
2018-04-16T04:03:21.429Z,10.80
2018-04-16T04:05:51.638Z,9.30
2018-04-16T04:08:22.734Z,10.40
2018-04-16T04:10:52.541Z,10.30
2018-04-16T04:13:22.296Z,10.30
2018-04-16T04:15:53.421Z,10.30
2018-04-16T04:18:23.461Z,10.30
2018-04-16T04:20:53.214Z,10.20
2018-04-16T04:23:35.769Z,10.20
2018-04-16T04:29:18.142Z,10.20
2018-04-16T04:31:48.321Z,10.10
2018-04-16T04:34:18.443Z,10.10
2018-04-16T04:36:48.561Z,10.10
2018-04-16T04:39:18.683Z,10.10
2018-04-16T04:41:49.184Z,10.10
2018-04-16T04:44:19.337Z,10.10
2018-04-16T04:46:49.498Z,10.00
2018-04-16T04:49:19.623Z,10.00
2018-04-16T04:51:49.748Z,9.90
2018-04-16T04:54:19.865Z,9.90
2018-04-16T04:56:49.950Z,9.80
2018-04-16T04:59:20.052Z,9.80
2018-04-16T05:01:50.226Z,9.80
2018-04-16T05:04:20.308Z,9.80
2018-04-16T05:06:50.509Z,9.80
2018-04-16T05:09:20.788Z,9.70
2018-04-16T05:11:50.952Z,9.60
2018-04-16T05:14:21.237Z,9.80
2018-04-16T05:16:51.445Z,9.80
2018-04-16T05:19:21.624Z,9.70
2018-04-16T05:21:51.743Z,9.90
2018-04-16T05:24:21.917Z,9.90
2018-04-16T05:26:52.048Z,9.90
2018-04-16T05:29:22.202Z,10.20
2018-04-16T05:31:52.482Z,10.30
2018-04-16T05:34:22.603Z,10.40
2018-04-16T05:36:52.690Z,10.50
2018-04-16T05:39:22.850Z,10.70
2018-04-16T05:41:52.965Z,10.70
2018-04-16T05:44:23.088Z,10.80
2018-04-16T05:46:52.862Z,11.00
2018-04-16T05:49:23.067Z,11.20
2018-04-16T05:51:53.189Z,11.80
2018-04-16T05:54:22.915Z,14.00
2018-04-16T05:56:52.427Z,14.00
2018-04-16T05:59:21.910Z,16.30
2018-04-16T06:01:52.082Z,18.70
2018-04-16T06:04:21.451Z,18.70
2018-04-16T06:06:50.836Z,20.10
2018-04-16T06:09:21.059Z,21.90
2018-04-16T06:11:54.172Z,21.90
2018-04-16T06:14:23.651Z,22.50
2018-04-16T06:16:53.215Z,22.70
2018-04-16T06:19:22.664Z,23.10
2018-04-16T06:21:54.219Z,24.70
2018-04-16T06:24:24.641Z,26.20
2018-04-16T06:26:54.049Z,25.50
2018-04-16T06:29:24.222Z,26.80
2018-04-16T06:31:53.679Z,26.70
2018-04-16T06:34:23.179Z,27.10
2018-04-16T06:36:53.323Z,27.30
2018-04-16T06:39:22.778Z,27.30
2018-04-16T06:41:52.162Z,27.80
2018-04-16T06:44:21.531Z,27.80
2018-04-16T06:46:50.974Z,28.10
2018-04-16T06:49:20.364Z,28.40
2018-04-16T06:51:49.731Z,29.20
2018-04-16T06:54:19.123Z,29.90
2018-04-16T06:56:49.275Z,30.40
2018-04-16T06:59:28.270Z,30.30
2018-04-16T07:01:59.180Z,31.90
2018-04-16T07:04:30.236Z,30.20
2018-04-16T07:06:59.768Z,29.80
2018-04-16T07:09:29.264Z,29.60
2018-04-16T07:11:59.700Z,29.50
2018-04-16T07:14:29.295Z,30.80
2018-04-16T07:16:59.516Z,29.90
2018-04-16T07:19:28.983Z,31.40
2018-04-16T07:21:58.524Z,30.30
2018-04-16T07:24:27.937Z,30.60
2018-04-16T07:26:59.602Z,30.30
2018-04-16T07:29:29.294Z,30.30
2018-04-16T07:31:58.830Z,28.00
2018-04-16T07:34:28.422Z,28.00
2018-04-16T07:36:57.933Z,28.40
2018-04-16T07:39:27.540Z,29.10
2018-04-16T07:42:00.953Z,30.50
2018-04-16T07:44:31.587Z,30.40
2018-04-16T07:47:04.058Z,30.90
2018-04-16T07:49:33.492Z,31.80
2018-04-16T07:52:04.577Z,32.60
2018-04-16T07:54:34.315Z,32.90
2018-04-16T07:57:03.759Z,32.80
2018-04-16T07:59:33.166Z,33.00
2018-04-16T08:02:02.658Z,33.20
2018-04-16T08:04:32.767Z,33.30
2018-04-16T08:07:03.841Z,33.30
2018-04-16T08:09:33.388Z,33.80
2018-04-16T08:12:02.812Z,34.90
2018-04-16T08:14:32.896Z,35.30
2018-04-16T08:17:02.253Z,35.20
2018-04-16T08:19:31.600Z,35.20
2018-04-16T08:22:01.813Z,35.70
2018-04-16T08:24:37.396Z,36.70
2018-04-16T08:27:07.635Z,36.60
2018-04-16T08:29:36.967Z,37.60
2018-04-16T08:32:06.370Z,36.40
2018-04-16T08:34:35.674Z,38.70
2018-04-16T08:37:04.987Z,38.90
2018-04-16T08:39:34.299Z,39.10
2018-04-16T08:42:04.378Z,37.80
2018-04-16T08:44:33.695Z,39.60
2018-04-16T08:47:03.002Z,39.30
2018-04-16T08:49:32.306Z,38.90
2018-04-16T08:52:01.630Z,38.70
2018-04-16T08:54:31.013Z,39.30
2018-04-16T08:57:01.940Z,40.10
2018-04-16T08:59:31.269Z,40.10
2018-04-16T09:02:01.472Z,39.90
2018-04-16T09:04:31.618Z,40.30
2018-04-16T09:07:01.668Z,40.40
2018-04-16T09:09:31.032Z,40.30
2018-04-16T09:12:01.143Z,40.40
2018-04-16T09:14:31.584Z,40.40
2018-04-16T09:17:01.646Z,40.60
2018-04-16T09:19:30.942Z,40.50
2018-04-16T09:22:02.301Z,40.80
2018-04-16T09:24:31.620Z,41.00
2018-04-16T09:27:00.923Z,41.30
2018-04-16T09:29:36.383Z,41.20
2018-04-16T09:32:05.753Z,41.20
2018-04-16T09:34:35.044Z,41.20
2018-04-16T09:37:04.344Z,41.50
2018-04-16T09:39:33.703Z,41.40
2018-04-16T09:42:03.827Z,41.80
2018-04-16T09:44:33.897Z,41.00
2018-04-16T09:47:03.205Z,41.90
2018-04-16T09:49:32.914Z,41.30
2018-04-16T09:52:02.208Z,41.50
2018-04-16T09:54:39.335Z,41.90
2018-04-16T09:57:09.387Z,42.30
2018-04-16T09:59:38.693Z,42.30
2018-04-16T10:02:12.959Z,41.60
2018-04-16T10:04:42.568Z,41.60
2018-04-16T10:07:17.817Z,38.80
2018-04-16T10:09:48.045Z,38.10
2018-04-16T10:12:18.142Z,37.40
2018-04-16T10:14:48.224Z,36.70
2018-04-16T10:17:18.307Z,36.30
2018-04-16T10:19:47.999Z,36.50
2018-04-16T10:22:18.086Z,34.60
2018-04-16T10:24:48.145Z,35.10
2018-04-16T10:27:18.214Z,33.50
2018-04-16T10:29:48.267Z,31.60
2018-04-16T10:32:18.366Z,29.80
2018-04-16T10:34:54.503Z,28.40
2018-04-16T10:37:24.574Z,27.90
2018-04-16T10:39:55.822Z,27.40
2018-04-16T10:42:25.869Z,27.10
2018-04-16T10:45:01.706Z,27.10
2018-04-16T10:47:31.788Z,26.90
2018-04-16T10:50:01.849Z,26.90
2018-04-16T10:52:31.900Z,26.70
2018-04-16T10:55:02.028Z,25.70
2018-04-16T10:57:32.138Z,24.50
2018-04-16T11:00:05.612Z,23.80
2018-04-16T11:02:35.678Z,23.10
2018-04-16T11:05:05.815Z,22.60
2018-04-16T11:07:35.886Z,22.20
2018-04-16T11:10:08.063Z,22.00
2018-04-16T11:12:40.262Z,21.90
2018-04-16T11:15:10.645Z,21.90
2018-04-16T11:17:40.690Z,22.00
2018-04-16T11:20:12.233Z,21.90
2018-04-16T11:22:42.357Z,21.90
2018-04-16T11:25:12.060Z,22.10
2018-04-16T11:27:42.085Z,22.20
2018-04-16T11:30:13.213Z,22.30
2018-04-16T11:32:43.285Z,22.30
2018-04-16T11:36:08.205Z,22.60
2018-04-16T11:38:38.237Z,23.20
2018-04-16T11:41:08.285Z,23.60
2018-04-16T11:43:38.315Z,23.70
2018-04-16T11:46:10.692Z,23.90
2018-04-16T11:48:40.741Z,24.30
2018-04-16T11:51:10.819Z,24.20
2018-04-16T11:53:40.887Z,24.40
2018-04-16T11:56:11.005Z,24.20
2018-04-16T11:58:41.089Z,24.40
2018-04-16T12:01:11.207Z,24.30
2018-04-16T12:03:41.259Z,24.20
2018-04-16T12:06:11.353Z,24.30
2018-04-16T12:08:41.403Z,24.20
2018-04-16T12:11:11.496Z,23.80
2018-04-16T12:13:41.589Z,23.70
2018-04-16T12:16:11.757Z,23.30
2018-04-16T12:18:41.887Z,23.10
2018-04-16T12:21:11.954Z,23.00
2018-04-16T12:23:49.500Z,22.90
2018-04-16T12:26:19.464Z,22.80
2018-04-16T12:28:49.596Z,19.60
2018-04-16T12:31:19.765Z,22.60
2018-04-16T12:33:49.994Z,22.60
2018-04-16T12:36:20.162Z,22.70
2018-04-16T12:38:50.441Z,22.80
2018-04-16T12:41:20.569Z,22.80
2018-04-16T12:43:50.727Z,21.40
2018-04-16T12:46:20.844Z,23.10
2018-04-16T12:48:50.968Z,22.00
2018-04-16T12:51:21.091Z,23.50
2018-04-16T12:53:53.291Z,23.60
2018-04-16T12:56:23.625Z,23.70
2018-04-16T12:58:53.902Z,24.20
2018-04-16T13:01:24.120Z,24.70
2018-04-16T13:03:54.332Z,24.80
2018-04-16T13:06:28.163Z,24.80
2018-04-16T13:08:58.754Z,24.80
2018-04-16T13:11:30.053Z,24.70
2018-04-16T13:13:59.900Z,24.40
2018-04-16T13:16:30.225Z,24.10
2018-04-16T13:19:00.347Z,24.10
2018-04-16T13:21:30.464Z,24.00
2018-04-16T13:24:00.636Z,23.60
2018-04-16T13:26:30.761Z,23.30
2018-04-16T13:29:01.038Z,23.00
2018-04-16T13:31:32.554Z,22.90
2018-04-16T13:34:03.625Z,22.80
2018-04-16T13:36:34.043Z,22.60
2018-04-16T13:39:04.516Z,23.00
2018-04-16T13:41:34.735Z,23.20
2018-04-16T13:44:04.987Z,23.40
2018-04-16T13:46:37.706Z,23.60
2018-04-16T13:49:19.961Z,24.10
2018-04-16T13:51:51.539Z,24.60
2018-04-16T13:54:22.716Z,25.00
2018-04-16T13:56:52.832Z,24.70
2018-04-16T13:59:23.767Z,24.40
2018-04-16T14:01:58.616Z,24.50
2018-04-16T14:04:28.848Z,24.60
2018-04-16T14:07:01.403Z,24.90
2018-04-16T14:09:31.723Z,24.70
2018-04-16T14:12:02.050Z,24.30
2018-04-16T14:14:32.369Z,20.60
2018-04-16T14:17:03.964Z,23.60
2018-04-16T14:19:34.421Z,20.30
2018-04-16T14:22:05.915Z,24.00
2018-04-16T14:24:37.463Z,24.10
2018-04-16T14:27:07.805Z,23.80
2018-04-16T14:29:38.654Z,23.30
2018-04-16T14:32:09.727Z,22.00
2018-04-16T14:34:42.838Z,22.30
2018-04-16T14:37:35.417Z,22.00
2018-04-16T14:40:05.621Z,21.60
2018-04-16T14:42:40.166Z,21.70
2018-04-16T14:45:10.364Z,22.30
2018-04-16T14:47:41.528Z,21.50
2018-04-16T14:50:11.541Z,21.50
2018-04-16T14:52:41.735Z,21.60
2018-04-16T14:55:12.492Z,21.70
2018-04-16T14:57:44.764Z,21.80
2018-04-16T15:00:14.981Z,21.90
2018-04-16T15:02:45.471Z,21.80
2018-04-16T15:05:15.745Z,21.70
2018-04-16T15:07:53.241Z,21.70
2018-04-16T15:10:22.735Z,21.70
2018-04-16T15:12:58.706Z,21.90
2018-04-16T15:15:34.578Z,22.10
2018-04-16T15:18:19.564Z,22.10
2018-04-16T15:20:49.971Z,22.10
2018-04-16T15:23:20.545Z,22.30
2018-04-16T15:25:50.823Z,22.60
2018-04-16T15:28:22.551Z,22.80
2018-04-16T15:30:53.048Z,22.90
2018-04-16T15:33:26.233Z,23.00
2018-04-16T15:35:56.410Z,23.20
2018-04-16T15:38:29.145Z,23.30
2018-04-16T15:41:01.664Z,23.30
2018-04-16T15:43:32.709Z,23.10
2018-04-16T15:46:03.740Z,23.20
2018-04-16T15:48:34.067Z,23.30
2018-04-16T15:51:06.494Z,23.40
2018-04-16T15:53:36.856Z,23.50
2018-04-16T15:56:07.187Z,23.40
2018-04-16T15:59:24.772Z,23.30
2018-04-16T16:01:54.640Z,23.00
2018-04-16T16:04:24.881Z,22.90
2018-04-16T16:06:59.151Z,22.60
2018-04-16T16:09:37.183Z,22.60
2018-04-16T16:12:07.453Z,22.50
2018-04-16T16:14:37.407Z,22.30
2018-04-16T16:17:12.616Z,22.20
2018-04-16T16:19:43.309Z,22.20
2018-04-16T16:22:13.931Z,22.10
2018-04-16T16:24:44.295Z,22.10
2018-04-16T16:30:10.608Z,21.80
2018-04-16T16:35:19.506Z,21.70
2018-04-16T16:37:51.671Z,21.60
2018-04-16T16:40:23.446Z,21.40
2018-04-16T16:42:59.901Z,21.40
2018-04-16T16:45:30.482Z,21.30
2018-04-16T16:48:02.032Z,21.20
2018-04-16T16:50:34.680Z,21.10
2018-04-16T16:53:04.882Z,21.10
2018-04-16T16:55:35.175Z,21.00
2018-04-16T16:58:05.631Z,20.90
2018-04-16T17:00:39.506Z,20.90
2018-04-16T17:03:11.370Z,20.80
2018-04-16T17:05:42.537Z,20.70
2018-04-16T17:08:13.048Z,20.60
2018-04-16T17:10:44.709Z,20.50
2018-04-16T17:13:31.232Z,20.40
2018-04-16T17:16:03.605Z,20.30
2018-04-16T17:18:34.061Z,20.20
2018-04-16T17:21:05.231Z,20.10
2018-04-16T17:23:35.631Z,20.00
2018-04-16T17:26:06.767Z,19.80
2018-04-16T17:28:38.102Z,19.40
2018-04-16T17:31:10.025Z,19.60
2018-04-16T17:33:40.566Z,19.50
2018-04-16T17:36:11.953Z,19.40
2018-04-16T17:38:42.316Z,19.30
2018-04-16T17:41:13.409Z,20.90
2018-04-16T17:43:43.951Z,19.10
2018-04-16T17:46:16.030Z,18.90
2018-04-16T17:48:46.934Z,19.00
2018-04-16T17:51:20.899Z,18.80
2018-04-16T17:53:51.094Z,18.90
2018-04-16T17:56:21.969Z,18.70
2018-04-16T17:58:52.154Z,18.60
2018-04-16T18:01:23.080Z,18.50
2018-04-16T18:03:54.027Z,18.50
2018-04-16T18:06:25.799Z,18.30
2018-04-16T18:08:57.096Z,18.30
2018-04-16T18:11:28.476Z,18.10
2018-04-16T18:13:59.596Z,18.00
2018-04-16T18:16:30.436Z,17.90
2018-04-16T18:19:01.782Z,17.80
2018-04-16T18:21:34.197Z,17.70
2018-04-16T18:24:05.345Z,17.70
2018-04-16T18:26:36.621Z,17.60
2018-04-16T18:29:07.563Z,17.50
2018-04-16T18:31:37.870Z,17.40
2018-04-16T18:34:08.205Z,17.40
2018-04-16T18:36:37.707Z,17.30
2018-04-16T18:39:09.426Z,17.20
2018-04-16T18:41:39.788Z,17.20
2018-04-16T18:44:10.126Z,17.20
2018-04-16T18:46:41.065Z,17.10
2018-04-16T18:49:11.555Z,17.00
2018-04-16T18:51:42.566Z,16.90
2018-04-16T18:54:19.941Z,16.90
2018-04-16T18:56:50.554Z,16.80
2018-04-16T18:59:21.891Z,16.60
2018-04-16T19:01:52.226Z,16.50
2018-04-16T19:04:22.561Z,16.40
2018-04-16T19:06:52.770Z,16.30
2018-04-16T19:09:26.354Z,16.30
2018-04-16T19:11:59.622Z,16.30
2018-04-16T19:14:31.015Z,16.30
2018-04-16T19:17:01.681Z,16.20
2018-04-16T19:19:33.903Z,16.00
2018-04-16T19:22:06.573Z,16.10
2018-04-16T19:24:37.780Z,16.00
2018-04-16T19:27:13.311Z,15.80
2018-04-16T19:29:46.383Z,15.90
2018-04-16T19:32:17.523Z,15.80
2018-04-16T19:34:53.476Z,15.60
2018-04-16T19:37:24.964Z,15.60
2018-04-16T19:39:56.873Z,15.40
2018-04-16T19:42:32.593Z,15.40
2018-04-16T19:45:03.888Z,15.30
2018-04-16T19:47:35.105Z,15.20
2018-04-16T19:50:08.668Z,15.10
2018-04-16T19:52:40.207Z,14.90
2018-04-16T19:55:11.355Z,14.90
2018-04-16T19:57:47.405Z,14.80
2018-04-16T20:00:18.640Z,14.70
2018-04-16T20:02:53.872Z,14.60
2018-04-16T20:05:25.153Z,14.50
2018-04-16T20:07:56.416Z,14.50
2018-04-16T20:10:27.421Z,14.50
2018-04-16T20:12:58.850Z,14.60
2018-04-16T20:15:29.779Z,14.50
2018-04-16T20:18:00.139Z,14.50
2018-04-16T20:20:31.047Z,14.50
2018-04-16T20:23:02.245Z,14.50
2018-04-16T20:25:33.336Z,14.50
2018-04-16T20:28:04.892Z,13.10
2018-04-16T20:30:35.244Z,14.50
2018-04-16T20:33:06.298Z,14.50
2018-04-16T20:35:36.707Z,14.40
2018-04-16T20:38:06.982Z,14.40
2018-04-16T20:40:37.262Z,14.40
2018-04-16T20:43:08.070Z,14.40
2018-04-16T20:45:38.983Z,14.50
2018-04-16T20:48:09.307Z,14.50
2018-04-16T20:50:40.085Z,14.50
2018-04-16T20:53:10.665Z,14.50
2018-04-16T20:55:41.148Z,14.50
2018-04-16T20:58:11.701Z,14.40
2018-04-16T21:00:42.663Z,14.30
2018-04-16T21:03:13.638Z,14.30
2018-04-16T21:05:44.742Z,14.20
2018-04-16T21:08:14.727Z,14.10
2018-04-16T21:10:45.239Z,14.20
2018-04-16T21:13:15.784Z,12.90
2018-04-16T21:15:46.834Z,14.30
2018-04-16T21:18:17.318Z,14.20
2018-04-16T21:20:47.652Z,14.20
2018-04-16T21:23:17.548Z,14.30
2018-04-16T21:25:47.706Z,14.30
2018-04-16T21:28:19.024Z,14.40
2018-04-16T21:30:49.573Z,14.20
2018-04-16T21:33:20.022Z,14.30
2018-04-16T21:35:51.073Z,14.20
2018-04-16T21:38:22.163Z,14.20
2018-04-16T21:40:52.524Z,14.10
2018-04-16T21:43:22.853Z,14.00
2018-04-16T21:45:53.176Z,13.90
2018-04-16T21:48:23.405Z,13.80
2018-04-16T21:50:53.166Z,13.70
2018-04-16T21:53:23.322Z,13.60
2018-04-16T21:55:53.616Z,13.40
2018-04-16T21:58:23.774Z,13.40
2018-04-16T22:00:53.690Z,13.30
2018-04-16T22:03:24.094Z,13.20
2018-04-16T22:05:53.883Z,13.00
2018-04-16T22:08:24.093Z,12.90
2018-04-16T22:10:54.707Z,12.90
2018-04-16T22:13:25.548Z,12.80
2018-04-16T22:15:57.263Z,12.70
2018-04-16T22:18:31.653Z,12.60
2018-04-16T22:21:04.684Z,12.50
2018-04-16T22:23:35.213Z,12.30
2018-04-16T22:26:05.544Z,12.40
2018-04-16T22:28:36.093Z,12.30
2018-04-16T22:31:07.380Z,12.30
2018-04-16T22:33:37.955Z,12.20
2018-04-16T22:36:08.028Z,12.20
2018-04-16T22:38:38.015Z,12.10
2018-04-16T22:41:10.239Z,12.10
2018-04-16T22:43:42.030Z,12.00
2018-04-16T22:46:12.984Z,12.00
2018-04-16T22:48:43.581Z,12.00
2018-04-16T22:51:15.857Z,11.90
2018-04-16T22:53:48.492Z,11.90
2018-04-16T22:56:18.879Z,11.80
2018-04-16T22:58:50.316Z,11.70
2018-04-16T23:01:20.622Z,11.60
2018-04-16T23:03:52.505Z,11.50
2018-04-16T23:06:23.637Z,11.40
2018-04-16T23:08:55.572Z,11.30
2018-04-16T23:11:25.721Z,11.30
2018-04-16T23:13:57.285Z,11.20
2018-04-16T23:16:28.131Z,11.10
2018-04-16T23:19:02.371Z,11.10
2018-04-16T23:21:32.459Z,11.00
2018-04-16T23:24:03.512Z,10.90
2018-04-16T23:26:33.836Z,10.90
2018-04-16T23:29:03.674Z,10.90
2018-04-16T23:31:33.820Z,10.80
2018-04-16T23:34:03.988Z,10.80
2018-04-16T23:36:34.198Z,10.80
2018-04-16T23:39:04.829Z,10.70
2018-04-16T23:41:35.336Z,10.60
2018-04-16T23:44:06.791Z,10.60
2018-04-16T23:46:37.214Z,10.50
2018-04-16T23:49:08.003Z,10.50
2018-04-16T23:51:38.110Z,10.50
2018-04-16T23:54:08.238Z,10.40
2018-04-16T23:56:38.359Z,10.30
2018-04-16T23:59:08.790Z,10.30
